sensor_id;sensor_type;location;lat;lon;timestamp;P1;durP1;ratioP1;P2;durP2;ratioP2
13441;SDS011;6793;55.662;13.114;2023-10-13T00:01:09;0.50;;;0.50;;
13441;SDS011;6793;55.662;13.114;2023-10-13T00:03:38;0.60;;;0.60;;
13441;SDS011;6793;55.662;13.114;2023-10-13T00:06:06;0.50;;;0.50;;
13441;SDS011;6793;55.662;13.114;2023-10-13T00:08:33;0.50;;;0.50;;
13441;SDS011;6793;55.662;13.114;2023-10-13T00:11:03;0.50;;;0.50;;
13441;SDS011;6793;55.662;13.114;2023-10-13T00:13:30;0.50;;;0.50;;
13441;SDS011;6793;55.662;13.114;2023-10-13T00:16:08;0.50;;;0.50;;
13441;SDS011;6793;55.662;13.114;2023-10-13T00:18:41;0.50;;;0.50;;
13441;SDS011;6793;55.662;13.114;2023-10-13T00:21:09;0.50;;;0.50;;
13441;SDS011;6793;55.662;13.114;2023-10-13T00:23:40;0.50;;;0.50;;
13441;SDS011;6793;55.662;13.114;2023-10-13T00:26:17;0.60;;;0.60;;
13441;SDS011;6793;55.662;13.114;2023-10-13T00:28:48;0.60;;;0.60;;
13441;SDS011;6793;55.662;13.114;2023-10-13T00:31:25;0.50;;;0.50;;
13441;SDS011;6793;55.662;13.114;2023-10-13T00:34:01;0.60;;;0.60;;
13441;SDS011;6793;55.662;13.114;2023-10-13T00:36:36;0.50;;;0.50;;
13441;SDS011;6793;55.662;13.114;2023-10-13T00:39:11;0.60;;;0.60;;
13441;SDS011;6793;55.662;13.114;2023-10-13T00:41:40;0.60;;;0.60;;
13441;SDS011;6793;55.662;13.114;2023-10-13T00:44:17;0.57;;;0.57;;
13441;SDS011;6793;55.662;13.114;2023-10-13T00:46:52;0.50;;;0.50;;
13441;SDS011;6793;55.662;13.114;2023-10-13T00:49:21;0.60;;;0.60;;
13441;SDS011;6793;55.662;13.114;2023-10-13T00:51:48;0.60;;;0.60;;
13441;SDS011;6793;55.662;13.114;2023-10-13T00:54:14;0.60;;;0.60;;
13441;SDS011;6793;55.662;13.114;2023-10-13T00:56:43;0.50;;;0.50;;
13441;SDS011;6793;55.662;13.114;2023-10-13T00:59:14;0.65;;;0.65;;
13441;SDS011;6793;55.662;13.114;2023-10-13T01:01:41;0.60;;;0.60;;
13441;SDS011;6793;55.662;13.114;2023-10-13T01:04:09;0.50;;;0.50;;
13441;SDS011;6793;55.662;13.114;2023-10-13T01:06:39;0.50;;;0.50;;
13441;SDS011;6793;55.662;13.114;2023-10-13T01:09:07;0.60;;;0.60;;
13441;SDS011;6793;55.662;13.114;2023-10-13T01:11:38;0.60;;;0.60;;
13441;SDS011;6793;55.662;13.114;2023-10-13T01:14:05;0.60;;;0.60;;
13441;SDS011;6793;55.662;13.114;2023-10-13T01:16:31;0.60;;;0.60;;
13441;SDS011;6793;55.662;13.114;2023-10-13T01:18:58;0.60;;;0.60;;
13441;SDS011;6793;55.662;13.114;2023-10-13T01:21:26;0.60;;;0.60;;
13441;SDS011;6793;55.662;13.114;2023-10-13T01:23:55;0.60;;;0.60;;
13441;SDS011;6793;55.662;13.114;2023-10-13T01:26:21;0.60;;;0.60;;
13441;SDS011;6793;55.662;13.114;2023-10-13T01:28:51;0.60;;;0.60;;
13441;SDS011;6793;55.662;13.114;2023-10-13T01:31:19;0.60;;;0.60;;
13441;SDS011;6793;55.662;13.114;2023-10-13T01:33:55;0.60;;;0.60;;
13441;SDS011;6793;55.662;13.114;2023-10-13T01:36:24;0.60;;;0.60;;
13441;SDS011;6793;55.662;13.114;2023-10-13T01:38:51;0.60;;;0.60;;
13441;SDS011;6793;55.662;13.114;2023-10-13T01:41:20;0.60;;;0.60;;
13441;SDS011;6793;55.662;13.114;2023-10-13T01:43:47;0.60;;;0.60;;
13441;SDS011;6793;55.662;13.114;2023-10-13T01:46:13;0.60;;;0.60;;
13441;SDS011;6793;55.662;13.114;2023-10-13T01:48:44;0.50;;;0.50;;
13441;SDS011;6793;55.662;13.114;2023-10-13T01:51:11;0.60;;;0.60;;
13441;SDS011;6793;55.662;13.114;2023-10-13T01:53:38;0.50;;;0.50;;
13441;SDS011;6793;55.662;13.114;2023-10-13T01:56:04;0.50;;;0.50;;
13441;SDS011;6793;55.662;13.114;2023-10-13T01:58:36;0.50;;;0.50;;
13441;SDS011;6793;55.662;13.114;2023-10-13T02:01:06;0.50;;;0.50;;
13441;SDS011;6793;55.662;13.114;2023-10-13T02:03:34;0.60;;;0.60;;
13441;SDS011;6793;55.662;13.114;2023-10-13T02:06:06;0.60;;;0.60;;
13441;SDS011;6793;55.662;13.114;2023-10-13T02:08:36;0.50;;;0.50;;
13441;SDS011;6793;55.662;13.114;2023-10-13T02:11:05;0.60;;;0.60;;
13441;SDS011;6793;55.662;13.114;2023-10-13T02:13:33;0.60;;;0.60;;
13441;SDS011;6793;55.662;13.114;2023-10-13T02:16:07;0.57;;;0.57;;
13441;SDS011;6793;55.662;13.114;2023-10-13T02:18:33;0.50;;;0.50;;
13441;SDS011;6793;55.662;13.114;2023-10-13T02:21:06;0.50;;;0.50;;
13441;SDS011;6793;55.662;13.114;2023-10-13T02:23:38;0.50;;;0.50;;
13441;SDS011;6793;55.662;13.114;2023-10-13T02:26:09;0.47;;;0.47;;
13441;SDS011;6793;55.662;13.114;2023-10-13T02:28:37;0.60;;;0.60;;
13441;SDS011;6793;55.662;13.114;2023-10-13T02:31:05;0.50;;;0.50;;
13441;SDS011;6793;55.662;13.114;2023-10-13T02:33:33;0.60;;;0.60;;
13441;SDS011;6793;55.662;13.114;2023-10-13T02:36:01;0.50;;;0.50;;
13441;SDS011;6793;55.662;13.114;2023-10-13T02:38:29;0.60;;;0.60;;
13441;SDS011;6793;55.662;13.114;2023-10-13T02:41:09;0.57;;;0.57;;
13441;SDS011;6793;55.662;13.114;2023-10-13T02:43:37;0.60;;;0.60;;
13441;SDS011;6793;55.662;13.114;2023-10-13T02:46:03;0.57;;;0.57;;
13441;SDS011;6793;55.662;13.114;2023-10-13T02:48:30;0.50;;;0.50;;
13441;SDS011;6793;55.662;13.114;2023-10-13T02:51:06;0.60;;;0.60;;
13441;SDS011;6793;55.662;13.114;2023-10-13T02:53:42;0.50;;;0.50;;
13441;SDS011;6793;55.662;13.114;2023-10-13T02:56:12;0.50;;;0.50;;
13441;SDS011;6793;55.662;13.114;2023-10-13T02:58:38;0.60;;;0.60;;
13441;SDS011;6793;55.662;13.114;2023-10-13T03:01:09;0.60;;;0.60;;
13441;SDS011;6793;55.662;13.114;2023-10-13T03:03:42;0.50;;;0.50;;
13441;SDS011;6793;55.662;13.114;2023-10-13T03:06:14;0.60;;;0.60;;
13441;SDS011;6793;55.662;13.114;2023-10-13T03:08:40;0.60;;;0.60;;
13441;SDS011;6793;55.662;13.114;2023-10-13T03:11:08;0.50;;;0.50;;
13441;SDS011;6793;55.662;13.114;2023-10-13T03:13:34;0.60;;;0.60;;
13441;SDS011;6793;55.662;13.114;2023-10-13T03:16:02;0.60;;;0.60;;
13441;SDS011;6793;55.662;13.114;2023-10-13T03:18:37;0.70;;;0.70;;
13441;SDS011;6793;55.662;13.114;2023-10-13T03:21:03;0.60;;;0.60;;
13441;SDS011;6793;55.662;13.114;2023-10-13T03:23:34;0.60;;;0.60;;
13441;SDS011;6793;55.662;13.114;2023-10-13T03:26:11;0.60;;;0.60;;
13441;SDS011;6793;55.662;13.114;2023-10-13T03:28:41;0.60;;;0.60;;
13441;SDS011;6793;55.662;13.114;2023-10-13T03:31:16;0.60;;;0.60;;
13441;SDS011;6793;55.662;13.114;2023-10-13T03:33:43;0.60;;;0.60;;
13441;SDS011;6793;55.662;13.114;2023-10-13T03:36:14;0.60;;;0.60;;
13441;SDS011;6793;55.662;13.114;2023-10-13T03:39:03;0.60;;;0.60;;
13441;SDS011;6793;55.662;13.114;2023-10-13T03:41:32;0.50;;;0.50;;
13441;SDS011;6793;55.662;13.114;2023-10-13T03:44:02;0.60;;;0.60;;
13441;SDS011;6793;55.662;13.114;2023-10-13T03:46:37;0.50;;;0.50;;
13441;SDS011;6793;55.662;13.114;2023-10-13T03:49:06;0.50;;;0.50;;
13441;SDS011;6793;55.662;13.114;2023-10-13T03:51:38;0.60;;;0.60;;
13441;SDS011;6793;55.662;13.114;2023-10-13T03:54:06;0.40;;;0.40;;
13441;SDS011;6793;55.662;13.114;2023-10-13T03:56:34;0.50;;;0.50;;
13441;SDS011;6793;55.662;13.114;2023-10-13T03:59:05;0.60;;;0.60;;
13441;SDS011;6793;55.662;13.114;2023-10-13T04:01:34;0.50;;;0.50;;
13441;SDS011;6793;55.662;13.114;2023-10-13T04:04:10;0.50;;;0.50;;
13441;SDS011;6793;55.662;13.114;2023-10-13T04:06:39;0.40;;;0.40;;
13441;SDS011;6793;55.662;13.114;2023-10-13T04:09:40;0.40;;;0.40;;
13441;SDS011;6793;55.662;13.114;2023-10-13T04:12:24;0.40;;;0.40;;
13441;SDS011;6793;55.662;13.114;2023-10-13T04:15:09;0.40;;;0.40;;
13441;SDS011;6793;55.662;13.114;2023-10-13T04:17:47;0.40;;;0.40;;
13441;SDS011;6793;55.662;13.114;2023-10-13T04:20:15;0.40;;;0.40;;
13441;SDS011;6793;55.662;13.114;2023-10-13T04:22:58;0.40;;;0.40;;
13441;SDS011;6793;55.662;13.114;2023-10-13T04:25:52;0.40;;;0.40;;
13441;SDS011;6793;55.662;13.114;2023-10-13T04:28:34;0.40;;;0.40;;
13441;SDS011;6793;55.662;13.114;2023-10-13T04:31:15;0.40;;;0.40;;
13441;SDS011;6793;55.662;13.114;2023-10-13T04:34:09;0.40;;;0.40;;
13441;SDS011;6793;55.662;13.114;2023-10-13T04:36:44;0.40;;;0.40;;
13441;SDS011;6793;55.662;13.114;2023-10-13T04:39:11;0.40;;;0.40;;
13441;SDS011;6793;55.662;13.114;2023-10-13T04:41:55;0.40;;;0.40;;
13441;SDS011;6793;55.662;13.114;2023-10-13T04:44:38;0.47;;;0.47;;
13441;SDS011;6793;55.662;13.114;2023-10-13T04:47:17;0.40;;;0.40;;
13441;SDS011;6793;55.662;13.114;2023-10-13T04:49:46;0.40;;;0.40;;
13441;SDS011;6793;55.662;13.114;2023-10-13T04:52:17;0.40;;;0.40;;
13441;SDS011;6793;55.662;13.114;2023-10-13T04:55:07;0.40;;;0.40;;
13441;SDS011;6793;55.662;13.114;2023-10-13T04:57:52;0.30;;;0.30;;
13441;SDS011;6793;55.662;13.114;2023-10-13T05:00:36;0.30;;;0.30;;
13441;SDS011;6793;55.662;13.114;2023-10-13T05:03:34;0.30;;;0.30;;
13441;SDS011;6793;55.662;13.114;2023-10-13T05:06:33;0.30;;;0.30;;
13441;SDS011;6793;55.662;13.114;2023-10-13T05:09:20;0.30;;;0.30;;
13441;SDS011;6793;55.662;13.114;2023-10-13T05:12:05;0.30;;;0.30;;
13441;SDS011;6793;55.662;13.114;2023-10-13T05:14:51;0.30;;;0.30;;
13441;SDS011;6793;55.662;13.114;2023-10-13T05:17:35;0.20;;;0.20;;
13441;SDS011;6793;55.662;13.114;2023-10-13T05:20:20;0.30;;;0.30;;
13441;SDS011;6793;55.662;13.114;2023-10-13T05:23:16;0.20;;;0.20;;
13441;SDS011;6793;55.662;13.114;2023-10-13T05:26:03;0.20;;;0.20;;
13441;SDS011;6793;55.662;13.114;2023-10-13T05:28:48;0.20;;;0.20;;
13441;SDS011;6793;55.662;13.114;2023-10-13T05:31:33;0.20;;;0.20;;
13441;SDS011;6793;55.662;13.114;2023-10-13T05:34:18;0.20;;;0.20;;
13441;SDS011;6793;55.662;13.114;2023-10-13T05:37:11;0.20;;;0.20;;
13441;SDS011;6793;55.662;13.114;2023-10-13T05:39:56;0.20;;;0.20;;
13441;SDS011;6793;55.662;13.114;2023-10-13T05:42:40;0.13;;;0.13;;
13441;SDS011;6793;55.662;13.114;2023-10-13T05:45:25;0.20;;;0.20;;
13441;SDS011;6793;55.662;13.114;2023-10-13T05:48:24;0.15;;;0.15;;
13441;SDS011;6793;55.662;13.114;2023-10-13T05:51:07;0.20;;;0.20;;
13441;SDS011;6793;55.662;13.114;2023-10-13T05:53:52;0.20;;;0.20;;
13441;SDS011;6793;55.662;13.114;2023-10-13T05:56:36;0.10;;;0.10;;
13441;SDS011;6793;55.662;13.114;2023-10-13T05:59:22;0.10;;;0.10;;
13441;SDS011;6793;55.662;13.114;2023-10-13T06:02:06;0.10;;;0.10;;
13441;SDS011;6793;55.662;13.114;2023-10-13T06:04:52;0.10;;;0.10;;
13441;SDS011;6793;55.662;13.114;2023-10-13T06:07:37;0.10;;;0.10;;
13441;SDS011;6793;55.662;13.114;2023-10-13T06:10:21;0.10;;;0.10;;
13441;SDS011;6793;55.662;13.114;2023-10-13T06:13:06;0.10;;;0.10;;
13441;SDS011;6793;55.662;13.114;2023-10-13T06:15:51;0.10;;;0.10;;
13441;SDS011;6793;55.662;13.114;2023-10-13T06:18:36;0.10;;;0.10;;
13441;SDS011;6793;55.662;13.114;2023-10-13T06:21:22;0.10;;;0.10;;
13441;SDS011;6793;55.662;13.114;2023-10-13T06:24:07;0.10;;;0.10;;
13441;SDS011;6793;55.662;13.114;2023-10-13T06:26:51;0.10;;;0.10;;
13441;SDS011;6793;55.662;13.114;2023-10-13T06:29:36;0.10;;;0.10;;
13441;SDS011;6793;55.662;13.114;2023-10-13T06:32:03;0.10;;;0.10;;
13441;SDS011;6793;55.662;13.114;2023-10-13T06:34:36;0.10;;;0.10;;
13441;SDS011;6793;55.662;13.114;2023-10-13T06:37:11;0.10;;;0.10;;
13441;SDS011;6793;55.662;13.114;2023-10-13T06:39:49;0.10;;;0.10;;
13441;SDS011;6793;55.662;13.114;2023-10-13T06:42:16;0.10;;;0.10;;
13441;SDS011;6793;55.662;13.114;2023-10-13T06:44:44;0.10;;;0.10;;
13441;SDS011;6793;55.662;13.114;2023-10-13T06:47:11;0.10;;;0.10;;
13441;SDS011;6793;55.662;13.114;2023-10-13T06:49:39;0.10;;;0.10;;
13441;SDS011;6793;55.662;13.114;2023-10-13T06:52:08;0.00;;;0.00;;
13441;SDS011;6793;55.662;13.114;2023-10-13T06:54:37;0.10;;;0.10;;
13441;SDS011;6793;55.662;13.114;2023-10-13T06:57:06;0.10;;;0.10;;
13441;SDS011;6793;55.662;13.114;2023-10-13T06:59:39;0.00;;;0.00;;
13441;SDS011;6793;55.662;13.114;2023-10-13T07:02:06;0.10;;;0.10;;
13441;SDS011;6793;55.662;13.114;2023-10-13T07:04:45;0.10;;;0.10;;
13441;SDS011;6793;55.662;13.114;2023-10-13T07:07:12;0.00;;;0.00;;
13441;SDS011;6793;55.662;13.114;2023-10-13T07:09:42;0.00;;;0.00;;
13441;SDS011;6793;55.662;13.114;2023-10-13T07:12:14;0.10;;;0.10;;
13441;SDS011;6793;55.662;13.114;2023-10-13T07:14:48;0.10;;;0.10;;
13441;SDS011;6793;55.662;13.114;2023-10-13T07:17:18;0.00;;;0.00;;
13441;SDS011;6793;55.662;13.114;2023-10-13T07:19:48;0.00;;;0.00;;
13441;SDS011;6793;55.662;13.114;2023-10-13T07:22:19;0.00;;;0.00;;
13441;SDS011;6793;55.662;13.114;2023-10-13T07:24:48;0.00;;;0.00;;
13441;SDS011;6793;55.662;13.114;2023-10-13T07:27:15;0.00;;;0.00;;
13441;SDS011;6793;55.662;13.114;2023-10-13T07:29:48;0.00;;;0.00;;
13441;SDS011;6793;55.662;13.114;2023-10-13T07:32:21;0.00;;;0.00;;
13441;SDS011;6793;55.662;13.114;2023-10-13T07:34:52;0.00;;;0.00;;
13441;SDS011;6793;55.662;13.114;2023-10-13T07:37:21;0.00;;;0.00;;
13441;SDS011;6793;55.662;13.114;2023-10-13T07:39:54;0.00;;;0.00;;
13441;SDS011;6793;55.662;13.114;2023-10-13T07:42:24;0.00;;;0.00;;
13441;SDS011;6793;55.662;13.114;2023-10-13T07:44:57;0.00;;;0.00;;
13441;SDS011;6793;55.662;13.114;2023-10-13T07:47:24;0.00;;;0.00;;
13441;SDS011;6793;55.662;13.114;2023-10-13T07:49:53;0.00;;;0.00;;
13441;SDS011;6793;55.662;13.114;2023-10-13T07:52:22;0.00;;;0.00;;
13441;SDS011;6793;55.662;13.114;2023-10-13T07:55:03;0.00;;;0.00;;
13441;SDS011;6793;55.662;13.114;2023-10-13T07:57:37;0.00;;;0.00;;
13441;SDS011;6793;55.662;13.114;2023-10-13T08:00:18;0.00;;;0.00;;
13441;SDS011;6793;55.662;13.114;2023-10-13T08:02:55;0.00;;;0.00;;
13441;SDS011;6793;55.662;13.114;2023-10-13T08:05:32;0.00;;;0.00;;
13441;SDS011;6793;55.662;13.114;2023-10-13T08:08:07;0.00;;;0.00;;
13441;SDS011;6793;55.662;13.114;2023-10-13T08:10:40;0.00;;;0.00;;
13441;SDS011;6793;55.662;13.114;2023-10-13T08:13:10;0.00;;;0.00;;
13441;SDS011;6793;55.662;13.114;2023-10-13T08:15:39;0.00;;;0.00;;
13441;SDS011;6793;55.662;13.114;2023-10-13T08:18:12;0.00;;;0.00;;
13441;SDS011;6793;55.662;13.114;2023-10-13T08:20:45;0.00;;;0.00;;
13441;SDS011;6793;55.662;13.114;2023-10-13T08:23:16;0.00;;;0.00;;
13441;SDS011;6793;55.662;13.114;2023-10-13T08:26:00;0.00;;;0.00;;
13441;SDS011;6793;55.662;13.114;2023-10-13T08:28:55;0.00;;;0.00;;
13441;SDS011;6793;55.662;13.114;2023-10-13T08:31:22;0.00;;;0.00;;
13441;SDS011;6793;55.662;13.114;2023-10-13T08:33:51;0.00;;;0.00;;
13441;SDS011;6793;55.662;13.114;2023-10-13T08:36:30;0.00;;;0.00;;
13441;SDS011;6793;55.662;13.114;2023-10-13T08:38:58;0.00;;;0.00;;
13441;SDS011;6793;55.662;13.114;2023-10-13T08:41:46;0.00;;;0.00;;
13441;SDS011;6793;55.662;13.114;2023-10-13T08:44:19;0.00;;;0.00;;
13441;SDS011;6793;55.662;13.114;2023-10-13T08:46:57;0.00;;;0.00;;
13441;SDS011;6793;55.662;13.114;2023-10-13T08:49:31;0.00;;;0.00;;
13441;SDS011;6793;55.662;13.114;2023-10-13T08:52:05;0.00;;;0.00;;
13441;SDS011;6793;55.662;13.114;2023-10-13T08:54:32;0.00;;;0.00;;
13441;SDS011;6793;55.662;13.114;2023-10-13T08:57:01;0.00;;;0.00;;
13441;SDS011;6793;55.662;13.114;2023-10-13T08:59:46;0.00;;;0.00;;
13441;SDS011;6793;55.662;13.114;2023-10-13T09:02:20;0.00;;;0.00;;
13441;SDS011;6793;55.662;13.114;2023-10-13T09:04:47;0.00;;;0.00;;
13441;SDS011;6793;55.662;13.114;2023-10-13T09:07:24;0.00;;;0.00;;
13441;SDS011;6793;55.662;13.114;2023-10-13T09:09:51;0.00;;;0.00;;
13441;SDS011;6793;55.662;13.114;2023-10-13T09:12:59;0.00;;;0.00;;
13441;SDS011;6793;55.662;13.114;2023-10-13T09:15:29;0.00;;;0.00;;
13441;SDS011;6793;55.662;13.114;2023-10-13T09:18:22;0.00;;;0.00;;
13441;SDS011;6793;55.662;13.114;2023-10-13T09:21:07;0.00;;;0.00;;
13441;SDS011;6793;55.662;13.114;2023-10-13T09:23:55;0.00;;;0.00;;
13441;SDS011;6793;55.662;13.114;2023-10-13T09:26:42;0.00;;;0.00;;
13441;SDS011;6793;55.662;13.114;2023-10-13T09:29:18;0.00;;;0.00;;
13441;SDS011;6793;55.662;13.114;2023-10-13T09:31:57;0.00;;;0.00;;
13441;SDS011;6793;55.662;13.114;2023-10-13T09:34:25;0.00;;;0.00;;
13441;SDS011;6793;55.662;13.114;2023-10-13T09:36:55;0.00;;;0.00;;
13441;SDS011;6793;55.662;13.114;2023-10-13T09:39:23;0.00;;;0.00;;
13441;SDS011;6793;55.662;13.114;2023-10-13T09:42:05;0.00;;;0.00;;
13441;SDS011;6793;55.662;13.114;2023-10-13T09:44:36;0.00;;;0.00;;
13441;SDS011;6793;55.662;13.114;2023-10-13T09:47:05;0.00;;;0.00;;
13441;SDS011;6793;55.662;13.114;2023-10-13T09:49:39;0.00;;;0.00;;
13441;SDS011;6793;55.662;13.114;2023-10-13T09:52:14;0.00;;;0.00;;
13441;SDS011;6793;55.662;13.114;2023-10-13T09:54:47;0.00;;;0.00;;
13441;SDS011;6793;55.662;13.114;2023-10-13T09:57:24;0.00;;;0.00;;
13441;SDS011;6793;55.662;13.114;2023-10-13T09:59:57;0.00;;;0.00;;
13441;SDS011;6793;55.662;13.114;2023-10-13T10:02:31;0.00;;;0.00;;
13441;SDS011;6793;55.662;13.114;2023-10-13T10:04:57;0.00;;;0.00;;
13441;SDS011;6793;55.662;13.114;2023-10-13T10:07:37;0.00;;;0.00;;
13441;SDS011;6793;55.662;13.114;2023-10-13T10:10:05;0.00;;;0.00;;
13441;SDS011;6793;55.662;13.114;2023-10-13T10:12:35;0.00;;;0.00;;
13441;SDS011;6793;55.662;13.114;2023-10-13T10:15:09;0.00;;;0.00;;
13441;SDS011;6793;55.662;13.114;2023-10-13T10:17:39;0.00;;;0.00;;
13441;SDS011;6793;55.662;13.114;2023-10-13T10:20:07;0.00;;;0.00;;
13441;SDS011;6793;55.662;13.114;2023-10-13T10:22:58;0.00;;;0.00;;
13441;SDS011;6793;55.662;13.114;2023-10-13T10:25:28;0.00;;;0.00;;
13441;SDS011;6793;55.662;13.114;2023-10-13T10:28:00;0.00;;;0.00;;
13441;SDS011;6793;55.662;13.114;2023-10-13T10:30:32;0.00;;;0.00;;
13441;SDS011;6793;55.662;13.114;2023-10-13T10:32:59;0.00;;;0.00;;
13441;SDS011;6793;55.662;13.114;2023-10-13T10:35:32;0.00;;;0.00;;
13441;SDS011;6793;55.662;13.114;2023-10-13T10:38:06;0.00;;;0.00;;
13441;SDS011;6793;55.662;13.114;2023-10-13T10:40:50;0.00;;;0.00;;
13441;SDS011;6793;55.662;13.114;2023-10-13T10:43:22;0.00;;;0.00;;
13441;SDS011;6793;55.662;13.114;2023-10-13T10:45:52;0.00;;;0.00;;
13441;SDS011;6793;55.662;13.114;2023-10-13T10:48:24;0.00;;;0.00;;
13441;SDS011;6793;55.662;13.114;2023-10-13T10:50:57;0.00;;;0.00;;
13441;SDS011;6793;55.662;13.114;2023-10-13T10:53:33;0.00;;;0.00;;
13441;SDS011;6793;55.662;13.114;2023-10-13T10:56:09;0.00;;;0.00;;
13441;SDS011;6793;55.662;13.114;2023-10-13T10:58:46;0.00;;;0.00;;
13441;SDS011;6793;55.662;13.114;2023-10-13T11:01:14;0.00;;;0.00;;
13441;SDS011;6793;55.662;13.114;2023-10-13T11:03:52;0.00;;;0.00;;
13441;SDS011;6793;55.662;13.114;2023-10-13T11:06:22;0.00;;;0.00;;
13441;SDS011;6793;55.662;13.114;2023-10-13T11:08:49;0.00;;;0.00;;
13441;SDS011;6793;55.662;13.114;2023-10-13T11:11:28;0.00;;;0.00;;
13441;SDS011;6793;55.662;13.114;2023-10-13T11:13:59;0.00;;;0.00;;
13441;SDS011;6793;55.662;13.114;2023-10-13T11:16:45;0.00;;;0.00;;
13441;SDS011;6793;55.662;13.114;2023-10-13T11:19:16;0.00;;;0.00;;
13441;SDS011;6793;55.662;13.114;2023-10-13T11:21:45;0.00;;;0.00;;
13441;SDS011;6793;55.662;13.114;2023-10-13T11:24:12;0.00;;;0.00;;
13441;SDS011;6793;55.662;13.114;2023-10-13T11:26:42;0.00;;;0.00;;
13441;SDS011;6793;55.662;13.114;2023-10-13T11:29:15;0.00;;;0.00;;
13441;SDS011;6793;55.662;13.114;2023-10-13T11:31:45;0.00;;;0.00;;
13441;SDS011;6793;55.662;13.114;2023-10-13T11:34:12;0.00;;;0.00;;
13441;SDS011;6793;55.662;13.114;2023-10-13T11:36:42;0.00;;;0.00;;
13441;SDS011;6793;55.662;13.114;2023-10-13T11:39:09;0.00;;;0.00;;
13441;SDS011;6793;55.662;13.114;2023-10-13T11:41:42;0.00;;;0.00;;
13441;SDS011;6793;55.662;13.114;2023-10-13T11:44:16;0.00;;;0.00;;
13441;SDS011;6793;55.662;13.114;2023-10-13T11:46:57;0.00;;;0.00;;
13441;SDS011;6793;55.662;13.114;2023-10-13T11:49:42;0.00;;;0.00;;
13441;SDS011;6793;55.662;13.114;2023-10-13T11:52:09;0.00;;;0.00;;
13441;SDS011;6793;55.662;13.114;2023-10-13T11:54:42;0.00;;;0.00;;
13441;SDS011;6793;55.662;13.114;2023-10-13T11:57:08;0.00;;;0.00;;
13441;SDS011;6793;55.662;13.114;2023-10-13T11:59:35;0.00;;;0.00;;
13441;SDS011;6793;55.662;13.114;2023-10-13T12:02:11;0.00;;;0.00;;
13441;SDS011;6793;55.662;13.114;2023-10-13T12:04:55;0.00;;;0.00;;
13441;SDS011;6793;55.662;13.114;2023-10-13T12:07:24;0.00;;;0.00;;
13441;SDS011;6793;55.662;13.114;2023-10-13T12:10:05;0.00;;;0.00;;
13441;SDS011;6793;55.662;13.114;2023-10-13T12:12:40;0.00;;;0.00;;
13441;SDS011;6793;55.662;13.114;2023-10-13T12:15:08;0.00;;;0.00;;
13441;SDS011;6793;55.662;13.114;2023-10-13T12:17:41;0.00;;;0.00;;
13441;SDS011;6793;55.662;13.114;2023-10-13T12:20:10;0.00;;;0.00;;
13441;SDS011;6793;55.662;13.114;2023-10-13T12:22:43;0.00;;;0.00;;
13441;SDS011;6793;55.662;13.114;2023-10-13T12:25:20;0.00;;;0.00;;
13441;SDS011;6793;55.662;13.114;2023-10-13T12:27:59;0.00;;;0.00;;
13441;SDS011;6793;55.662;13.114;2023-10-13T12:30:37;0.00;;;0.00;;
13441;SDS011;6793;55.662;13.114;2023-10-13T12:33:16;0.00;;;0.00;;
13441;SDS011;6793;55.662;13.114;2023-10-13T12:35:49;0.00;;;0.00;;
13441;SDS011;6793;55.662;13.114;2023-10-13T12:38:28;0.00;;;0.00;;
13441;SDS011;6793;55.662;13.114;2023-10-13T12:41:15;0.00;;;0.00;;
13441;SDS011;6793;55.662;13.114;2023-10-13T12:44:00;0.00;;;0.00;;
13441;SDS011;6793;55.662;13.114;2023-10-13T12:46:45;0.00;;;0.00;;
13441;SDS011;6793;55.662;13.114;2023-10-13T12:49:40;0.00;;;0.00;;
13441;SDS011;6793;55.662;13.114;2023-10-13T12:52:23;0.00;;;0.00;;
13441;SDS011;6793;55.662;13.114;2023-10-13T12:54:56;0.00;;;0.00;;
13441;SDS011;6793;55.662;13.114;2023-10-13T12:57:35;0.00;;;0.00;;
13441;SDS011;6793;55.662;13.114;2023-10-13T13:00:08;0.00;;;0.00;;
13441;SDS011;6793;55.662;13.114;2023-10-13T13:02:46;0.00;;;0.00;;
13441;SDS011;6793;55.662;13.114;2023-10-13T13:05:17;0.00;;;0.00;;
13441;SDS011;6793;55.662;13.114;2023-10-13T13:07:47;0.00;;;0.00;;
13441;SDS011;6793;55.662;13.114;2023-10-13T13:10:19;0.00;;;0.00;;
13441;SDS011;6793;55.662;13.114;2023-10-13T13:12:53;0.00;;;0.00;;
13441;SDS011;6793;55.662;13.114;2023-10-13T13:15:20;0.00;;;0.00;;
13441;SDS011;6793;55.662;13.114;2023-10-13T13:17:48;0.00;;;0.00;;
13441;SDS011;6793;55.662;13.114;2023-10-13T13:20:17;0.00;;;0.00;;
13441;SDS011;6793;55.662;13.114;2023-10-13T13:22:53;0.00;;;0.00;;
13441;SDS011;6793;55.662;13.114;2023-10-13T13:25:20;0.00;;;0.00;;
13441;SDS011;6793;55.662;13.114;2023-10-13T13:27:51;0.00;;;0.00;;
13441;SDS011;6793;55.662;13.114;2023-10-13T13:30:18;0.00;;;0.00;;
13441;SDS011;6793;55.662;13.114;2023-10-13T13:32:47;0.00;;;0.00;;
13441;SDS011;6793;55.662;13.114;2023-10-13T13:35:16;0.00;;;0.00;;
13441;SDS011;6793;55.662;13.114;2023-10-13T13:37:43;0.00;;;0.00;;
13441;SDS011;6793;55.662;13.114;2023-10-13T13:40:11;0.00;;;0.00;;
13441;SDS011;6793;55.662;13.114;2023-10-13T13:42:46;0.00;;;0.00;;
13441;SDS011;6793;55.662;13.114;2023-10-13T13:45:13;0.00;;;0.00;;
13441;SDS011;6793;55.662;13.114;2023-10-13T13:47:46;0.00;;;0.00;;
13441;SDS011;6793;55.662;13.114;2023-10-13T13:50:19;0.00;;;0.00;;
13441;SDS011;6793;55.662;13.114;2023-10-13T13:52:50;0.00;;;0.00;;
13441;SDS011;6793;55.662;13.114;2023-10-13T13:55:18;0.00;;;0.00;;
13441;SDS011;6793;55.662;13.114;2023-10-13T13:57:45;0.00;;;0.00;;
13441;SDS011;6793;55.662;13.114;2023-10-13T14:00:15;0.00;;;0.00;;
13441;SDS011;6793;55.662;13.114;2023-10-13T14:02:45;0.00;;;0.00;;
13441;SDS011;6793;55.662;13.114;2023-10-13T14:05:13;0.00;;;0.00;;
13441;SDS011;6793;55.662;13.114;2023-10-13T14:07:42;0.00;;;0.00;;
13441;SDS011;6793;55.662;13.114;2023-10-13T14:10:14;0.00;;;0.00;;
13441;SDS011;6793;55.662;13.114;2023-10-13T14:12:56;0.00;;;0.00;;
13441;SDS011;6793;55.662;13.114;2023-10-13T14:15:31;0.00;;;0.00;;
13441;SDS011;6793;55.662;13.114;2023-10-13T14:18:04;0.00;;;0.00;;
13441;SDS011;6793;55.662;13.114;2023-10-13T14:20:32;0.00;;;0.00;;
13441;SDS011;6793;55.662;13.114;2023-10-13T14:23:05;0.00;;;0.00;;
13441;SDS011;6793;55.662;13.114;2023-10-13T14:25:36;0.00;;;0.00;;
13441;SDS011;6793;55.662;13.114;2023-10-13T14:28:04;0.00;;;0.00;;
13441;SDS011;6793;55.662;13.114;2023-10-13T14:30:31;0.00;;;0.00;;
13441;SDS011;6793;55.662;13.114;2023-10-13T14:32:58;0.00;;;0.00;;
13441;SDS011;6793;55.662;13.114;2023-10-13T14:35:26;0.00;;;0.00;;
13441;SDS011;6793;55.662;13.114;2023-10-13T14:37:54;0.00;;;0.00;;
13441;SDS011;6793;55.662;13.114;2023-10-13T14:40:22;0.00;;;0.00;;
13441;SDS011;6793;55.662;13.114;2023-10-13T14:42:49;0.00;;;0.00;;
13441;SDS011;6793;55.662;13.114;2023-10-13T14:45:16;0.00;;;0.00;;
13441;SDS011;6793;55.662;13.114;2023-10-13T14:47:43;0.00;;;0.00;;
13441;SDS011;6793;55.662;13.114;2023-10-13T14:50:11;0.00;;;0.00;;
13441;SDS011;6793;55.662;13.114;2023-10-13T14:52:44;0.00;;;0.00;;
13441;SDS011;6793;55.662;13.114;2023-10-13T14:55:11;0.00;;;0.00;;
13441;SDS011;6793;55.662;13.114;2023-10-13T14:57:46;0.00;;;0.00;;
13441;SDS011;6793;55.662;13.114;2023-10-13T15:00:14;0.00;;;0.00;;
13441;SDS011;6793;55.662;13.114;2023-10-13T15:02:49;0.00;;;0.00;;
13441;SDS011;6793;55.662;13.114;2023-10-13T15:05:16;0.00;;;0.00;;
13441;SDS011;6793;55.662;13.114;2023-10-13T15:07:44;0.00;;;0.00;;
13441;SDS011;6793;55.662;13.114;2023-10-13T15:10:12;0.00;;;0.00;;
13441;SDS011;6793;55.662;13.114;2023-10-13T15:12:40;0.00;;;0.00;;
13441;SDS011;6793;55.662;13.114;2023-10-13T15:15:09;0.00;;;0.00;;
13441;SDS011;6793;55.662;13.114;2023-10-13T15:17:41;0.00;;;0.00;;
13441;SDS011;6793;55.662;13.114;2023-10-13T15:20:08;0.00;;;0.00;;
13441;SDS011;6793;55.662;13.114;2023-10-13T15:22:35;0.00;;;0.00;;
13441;SDS011;6793;55.662;13.114;2023-10-13T15:25:03;0.00;;;0.00;;
13441;SDS011;6793;55.662;13.114;2023-10-13T15:27:42;0.00;;;0.00;;